createdAt,value
2019-04-28T15:56:01.523Z,1.98
2019-04-28T15:58:38.568Z,1.95
2019-04-28T16:03:36.613Z,2.20
2019-04-28T16:06:06.217Z,1.80
2019-04-28T16:08:36.197Z,2.00
2019-04-28T16:11:06.775Z,1.98
2019-04-28T16:13:36.211Z,1.82
2019-04-28T16:16:08.830Z,1.80
2019-04-28T16:37:20.320Z,2.40
2019-04-28T16:39:49.771Z,2.10
2019-04-28T16:42:19.241Z,2.22
2019-04-28T16:44:49.764Z,2.25
2019-04-28T16:47:19.361Z,2.40
2019-04-28T16:49:48.807Z,2.20
2019-04-28T16:52:18.273Z,2.25
2019-04-28T16:54:49.358Z,3.08
2019-04-28T16:57:35.650Z,2.22
2019-04-28T17:00:10.687Z,1.82
2019-04-28T17:02:40.216Z,1.70
2019-04-28T17:05:10.274Z,1.80
2019-04-28T17:07:52.022Z,1.82
2019-04-28T17:10:10.876Z,1.92
2019-04-28T17:12:40.351Z,1.98
2019-04-28T17:15:10.035Z,1.80
2019-04-28T17:17:39.566Z,2.08
2019-04-28T17:20:09.347Z,1.90
2019-04-28T17:22:38.982Z,2.10
2019-04-28T17:25:08.684Z,2.00
2019-04-28T17:27:38.204Z,2.05
2019-04-28T17:30:09.591Z,5.10
2019-04-28T17:32:39.128Z,6.90
2019-04-28T17:35:08.711Z,8.83
2019-04-28T17:37:38.253Z,3.42
2019-04-28T17:40:07.761Z,6.25
2019-04-28T17:42:37.469Z,2.83
2019-04-28T17:45:07.859Z,2.05
2019-04-28T17:47:37.399Z,1.90
2019-04-28T17:50:07.557Z,1.82
2019-04-28T17:52:37.035Z,1.90
2019-04-28T17:55:07.022Z,1.60
2019-04-28T17:57:36.468Z,1.72
2019-04-28T18:00:21.204Z,2.00
2019-04-28T18:02:58.091Z,2.20
2019-04-28T18:05:29.202Z,2.10
2019-04-28T18:08:00.309Z,1.95
2019-04-28T18:10:30.797Z,1.90
2019-04-28T18:13:01.327Z,2.45
2019-04-28T18:15:35.267Z,2.22
2019-04-28T18:18:09.250Z,2.30
2019-04-28T18:20:38.691Z,2.00
2019-04-28T18:23:09.238Z,2.55
2019-04-28T18:25:38.675Z,2.45
2019-04-28T18:28:08.198Z,2.20
2019-04-28T18:30:51.494Z,2.80
2019-04-28T18:33:40.247Z,2.42
2019-04-28T18:38:50.897Z,2.77
2019-04-28T18:41:38.256Z,2.75
2019-04-28T18:44:09.363Z,2.58
2019-04-28T18:46:38.801Z,2.65
2019-04-28T18:49:08.334Z,2.27
2019-04-28T18:51:38.737Z,2.40
2019-04-28T18:54:08.273Z,2.05
2019-04-28T18:56:37.705Z,2.10
2019-04-28T18:59:07.169Z,2.55
2019-04-28T19:01:44.421Z,2.42
2019-04-28T19:04:13.953Z,1.80
2019-04-28T19:06:44.461Z,1.98
2019-04-28T19:09:18.917Z,2.00
2019-04-28T19:11:50.065Z,2.05
2019-04-28T19:14:21.174Z,1.85
2019-04-28T19:17:04.279Z,2.00
2019-04-28T19:19:35.501Z,2.05
2019-04-28T19:22:05.013Z,1.92
2019-04-28T19:24:34.469Z,1.77
2019-04-28T19:27:04.049Z,2.20
2019-04-28T19:29:33.510Z,1.98
2019-04-28T19:32:03.090Z,1.90
2019-04-28T19:34:32.627Z,2.00
2019-04-28T19:37:02.198Z,1.77
2019-04-28T19:39:31.735Z,2.10
2019-04-28T19:42:01.234Z,2.25
2019-04-28T19:44:31.777Z,2.30
2019-04-28T19:47:02.294Z,2.22
2019-04-28T19:49:31.820Z,2.10
2019-04-28T19:52:01.262Z,2.25
2019-04-28T19:54:32.497Z,2.30
2019-04-28T19:57:06.532Z,2.22
2019-04-28T19:59:41.671Z,2.00
2019-04-28T20:02:11.112Z,2.17
2019-04-28T20:04:40.573Z,2.40
2019-04-28T20:07:10.010Z,2.47
2019-04-28T20:09:39.534Z,2.40
2019-04-28T20:12:09.062Z,2.17
2019-04-28T20:14:38.662Z,2.30
2019-04-28T20:17:08.183Z,2.20
2019-04-28T20:19:37.619Z,2.10
2019-04-28T20:22:07.201Z,2.55
2019-04-28T20:24:46.966Z,2.15
2019-04-28T20:27:07.833Z,2.12
2019-04-28T20:29:37.338Z,1.90
2019-04-28T20:32:06.873Z,2.15
2019-04-28T20:34:36.312Z,2.10
2019-04-28T20:37:10.395Z,1.82
2019-04-28T20:39:40.011Z,2.00
2019-04-28T20:42:27.479Z,2.20
2019-04-28T20:44:56.897Z,2.00
2019-04-28T20:47:26.360Z,2.25
2019-04-28T20:49:55.797Z,1.85
2019-04-28T20:52:25.254Z,2.12
2019-04-28T20:54:54.687Z,2.02
2019-04-28T20:57:24.154Z,2.27
2019-04-28T20:59:53.585Z,2.20
2019-04-28T21:02:23.047Z,1.82
2019-04-28T21:04:52.561Z,2.30
2019-04-28T21:07:22.026Z,2.20
2019-04-28T21:09:51.465Z,2.12
2019-04-28T21:12:21.894Z,2.10
2019-04-28T21:14:51.342Z,2.02
2019-04-28T21:17:20.814Z,1.90
2019-04-28T21:19:50.260Z,2.05
2019-04-28T21:22:19.786Z,2.50
2019-04-28T21:24:49.230Z,2.12
2019-04-28T21:27:18.714Z,2.08
2019-04-28T21:29:48.134Z,2.27
2019-04-28T21:32:17.596Z,2.20
2019-04-28T21:34:48.106Z,2.40
2019-04-28T21:37:18.559Z,2.20
2019-04-28T21:39:48.122Z,2.62
2019-04-28T21:42:19.222Z,2.22
2019-04-28T21:44:53.248Z,2.15
2019-04-28T21:47:27.315Z,2.40
2019-04-28T21:49:56.751Z,1.95
2019-04-28T21:52:27.288Z,2.45
2019-04-28T21:54:56.730Z,1.92
2019-04-28T21:57:26.188Z,2.02
2019-04-28T21:59:55.630Z,2.05
2019-04-28T22:02:25.225Z,2.20
2019-04-28T22:04:54.675Z,2.12
2019-04-28T22:07:24.202Z,2.20
2019-04-28T22:09:53.647Z,2.20
2019-04-28T22:12:23.109Z,2.12
2019-04-28T22:14:52.555Z,2.00
2019-04-28T22:17:22.082Z,1.95
2019-04-28T22:19:51.523Z,1.87
2019-04-28T22:22:20.979Z,2.47
2019-04-28T22:24:54.760Z,2.10
2019-04-28T22:27:28.847Z,2.20
2019-04-28T22:29:58.555Z,2.20
2019-04-28T22:32:28.005Z,2.30
2019-04-28T22:34:57.444Z,2.02
2019-04-28T22:37:26.898Z,2.33
2019-04-28T22:39:56.333Z,2.22
2019-04-28T22:42:25.799Z,2.47
2019-04-28T22:44:55.310Z,2.72
2019-04-28T22:47:24.778Z,2.50
2019-04-28T22:49:54.277Z,2.40
2019-04-28T22:52:23.823Z,2.40
2019-04-28T22:54:54.906Z,2.35
2019-04-28T22:57:38.089Z,2.72
2019-04-28T23:00:12.177Z,2.75
2019-04-28T23:02:43.329Z,2.40
2019-04-28T23:05:12.906Z,2.50
2019-04-28T23:07:42.361Z,2.90
2019-04-28T23:10:11.875Z,2.40
2019-04-28T23:12:41.442Z,2.62
2019-04-28T23:15:13.985Z,2.60
2019-04-28T23:17:42.639Z,2.65
2019-04-28T23:20:13.314Z,2.27
2019-04-28T23:22:50.175Z,2.85
2019-04-28T23:25:19.681Z,2.52
2019-04-28T23:27:49.197Z,2.95
2019-04-28T23:30:39.674Z,2.52
2019-04-28T23:33:09.312Z,2.87
2019-04-28T23:35:38.941Z,2.80
2019-04-28T23:38:08.469Z,2.67
2019-04-28T23:40:39.622Z,2.47
2019-04-28T23:43:10.731Z,2.92
2019-04-28T23:45:41.239Z,2.37
2019-04-28T23:48:10.741Z,2.52
2019-04-28T23:50:41.845Z,2.45
2019-04-28T23:53:12.927Z,2.80
2019-04-28T23:55:42.398Z,2.37
2019-04-28T23:58:11.829Z,2.62
